CheckWX is a tool to help pilots better visualize weather data.  It is not intended as a substitute for an official pre-flight weather briefing.

09:20:58 UTC

KSCF METAR
South Marsh 268
South Marsh 268, Louisiana, USA
Current

6 mins ago

KSCF 220915Z AUTO 15021KT 5SM BR CLR 26/25 A2978 RMK A01
Observed
May-22 @ 09:15 UTC
Wind
  • 150° at 21 KTS
Visibility
5 SM
Flight Rules
MVFR
Conditions
Mist
Cloud Levels
  • Clear skies
Temperature
26°C / 79°F
Dewpoint
25°C / 77°F
Humidity
94%
Altimeter
29.78" Hg
Pressure
1008.42 hPa
Previous

26 mins ago

KSCF 220855Z AUTO 15021KT 5SM BR FEW009 26/25 A2978 RMK A01
Observed
May-22 @ 08:55 UTC
Wind
  • 150° at 21 KTS
Visibility
5 SM
Flight Rules
MVFR
Conditions
Mist
Cloud Levels
  • Few at 900' AGL
Temperature
26°C / 79°F
Dewpoint
25°C / 77°F
Humidity
94%
Altimeter
29.78" Hg
Pressure
1008.42 hPa
Previous

46 mins ago

KSCF 220835Z AUTO 15020KT 5SM BR CLR 26/25 A2978 RMK A01
Observed
May-22 @ 08:35 UTC
Wind
  • 150° at 20 KTS
Visibility
5 SM
Flight Rules
MVFR
Conditions
Mist
Cloud Levels
  • Clear skies
Temperature
26°C / 79°F
Dewpoint
25°C / 77°F
Humidity
94%
Altimeter
29.78" Hg
Pressure
1008.42 hPa